Time;durP1;ratioP1;P1;durP2;ratioP2;P2;SDS_P1;SDS_P2;PMS_P1;PMS_P2;Temp;Humidity;BMP_temperature;BMP_pressure;BME280_temperature;BME280_humidity;BME280_pressure;Samples;Min_cycle;Max_cycle;Signal;HPM_P1;HPM_P2
2023/07/13 00:01:16;;;;;;;2.07;1.70;;;20.70;1.00;;;;;;5115558;28;20731;-50
2023/07/13 00:03:41;;;;;;;4.17;2.40;;;20.60;1.00;;;;;;5114484;28;20421;-51
2023/07/13 00:06:07;;;;;;;5.43;1.60;;;20.40;1.00;;;;;;5114743;28;20506;-49
2023/07/13 00:08:33;;;;;;;2.20;1.50;;;20.40;1.00;;;;;;5114887;28;20469;-49
2023/07/13 00:11:00;;;;;;;3.07;1.90;;;20.40;1.00;;;;;;5115364;28;20520;-55
2023/07/13 00:13:26;;;;;;;2.37;1.70;;;20.30;1.00;;;;;;5115376;28;20464;-50
2023/07/13 00:15:53;;;;;;;1.70;1.43;;;20.20;1.00;;;;;;5117039;28;20417;-54
2023/07/13 00:18:20;;;;;;;2.40;1.50;;;20.20;1.00;;;;;;5119082;28;20595;-54
2023/07/13 00:20:45;;;;;;;3.30;2.00;;;20.20;1.00;;;;;;5119629;28;20429;-51
2023/07/13 00:23:11;;;;;;;2.23;1.60;;;20.10;1.00;;;;;;5119460;28;20512;-51
2023/07/13 00:25:36;;;;;;;2.40;1.60;;;19.90;1.00;;;;;;5119581;28;20179;-52
2023/07/13 00:28:03;;;;;;;2.53;1.67;;;19.80;1.00;;;;;;5119430;28;20175;-51
2023/07/13 00:30:28;;;;;;;2.10;1.50;;;19.70;1.00;;;;;;5118824;28;20252;-49
2023/07/13 00:32:54;;;;;;;2.70;1.83;;;19.70;1.00;;;;;;5119068;28;20478;-50
2023/07/13 00:35:19;;;;;;;2.70;1.60;;;19.70;1.00;;;;;;5117438;28;20234;-52
2023/07/13 00:37:45;;;;;;;4.40;1.77;;;19.70;1.00;;;;;;5118628;28;20194;-54
2023/07/13 00:40:13;;;;;;;2.40;2.17;;;19.80;1.00;;;;;;5119368;28;20232;-50
2023/07/13 00:42:39;;;;;;;1.87;1.30;;;19.80;1.00;;;;;;5118768;28;20168;-53
2023/07/13 00:45:27;;;;;;;3.63;2.10;;;19.70;1.00;;;;;;5118964;28;20750;-50
2023/07/13 00:47:54;;;;;;;2.40;1.33;;;19.70;1.00;;;;;;5119009;28;20421;-50
2023/07/13 00:50:21;;;;;;;2.47;1.30;;;19.70;1.00;;;;;;5118705;28;20819;-51
2023/07/13 00:52:50;;;;;;;3.33;1.67;;;19.70;1.00;;;;;;5119091;28;20414;-50
2023/07/13 00:55:16;;;;;;;3.37;1.60;;;19.70;1.00;;;;;;5100527;28;20484;-51
2023/07/13 00:57:41;;;;;;;3.13;1.87;;;19.60;1.00;;;;;;5118885;28;20438;-52
2023/07/13 01:00:08;;;;;;;2.10;1.40;;;19.70;1.00;;;;;;5100891;28;20435;-54
2023/07/13 01:02:37;;;;;;;2.07;1.50;;;19.80;1.00;;;;;;5100719;28;20274;-56
2023/07/13 01:05:24;;;;;;;2.10;1.53;;;19.80;1.00;;;;;;5118484;28;20489;-53
2023/07/13 01:07:51;;;;;;;4.23;2.23;;;19.80;1.00;;;;;;5117525;28;20456;-51
2023/07/13 01:10:19;;;;;;;2.77;1.87;;;19.90;1.00;;;;;;5118540;28;20712;-53
2023/07/13 01:12:45;;;;;;;3.40;1.90;;;19.90;1.00;;;;;;5100287;28;20476;-52
2023/07/13 01:15:35;;;;;;;3.47;1.57;;;20.00;1.00;;;;;;5118694;28;20500;-51
2023/07/13 01:18:01;;;;;;;2.10;1.53;;;20.10;1.00;;;;;;5118402;28;20204;-52
2023/07/13 01:20:27;;;;;;;3.70;1.70;;;20.10;1.00;;;;;;5100107;28;20479;-52
2023/07/13 01:22:53;;;;;;;3.50;2.23;;;20.00;1.00;;;;;;5118309;28;20421;-53
2023/07/13 01:25:20;;;;;;;4.13;1.70;;;20.00;1.00;;;;;;5117965;28;20244;-53
2023/07/13 01:27:45;;;;;;;2.50;1.33;;;19.90;1.00;;;;;;5098615;28;20216;-54
2023/07/13 01:30:11;;;;;;;3.50;1.70;;;19.90;1.00;;;;;;5118083;28;20699;-51
2023/07/13 01:32:37;;;;;;;1.80;1.43;;;19.90;1.00;;;;;;5117971;28;20210;-50
2023/07/13 01:35:03;;;;;;;2.43;1.50;;;19.80;1.00;;;;;;5117749;28;20216;-51
2023/07/13 01:37:33;;;;;;;3.30;1.63;;;19.80;1.00;;;;;;5117474;28;20164;-52
2023/07/13 01:39:59;;;;;;;2.70;1.57;;;19.70;1.00;;;;;;5098763;28;20443;-49
2023/07/13 01:42:24;;;;;;;3.23;2.03;;;19.60;1.00;;;;;;5116196;28;20418;-49
2023/07/13 01:44:50;;;;;;;4.03;2.20;;;19.50;1.00;;;;;;5115883;28;20578;-51
2023/07/13 01:47:16;;;;;;;2.70;1.93;;;19.50;1.00;;;;;;5116018;28;20292;-51
2023/07/13 01:49:41;;;;;;;1.90;1.60;;;19.40;1.00;;;;;;5116045;28;20175;-51
2023/07/13 01:52:07;;;;;;;2.43;1.63;;;19.40;1.00;;;;;;5115956;28;20418;-49
2023/07/13 01:54:33;;;;;;;3.30;1.80;;;19.30;1.00;;;;;;5115291;28;20616;-53
2023/07/13 01:56:59;;;;;;;3.70;2.20;;;19.30;1.00;;;;;;5117397;28;20176;-54
2023/07/13 01:59:25;;;;;;;4.00;1.80;;;19.40;1.00;;;;;;5115488;28;20417;-54
2023/07/13 02:01:51;;;;;;;4.33;2.37;;;19.40;1.00;;;;;;5081864;28;20478;-51
2023/07/13 02:05:09;;;;;;;2.07;1.60;;;19.50;1.00;;;;;;5117277;28;20245;-51
2023/07/13 02:07:35;;;;;;;2.80;1.77;;;19.50;1.00;;;;;;5124182;27;20318;-53
2023/07/13 02:10:00;;;;;;;2.63;2.00;;;19.50;1.00;;;;;;5137147;27;20424;-50
2023/07/13 02:12:26;;;;;;;4.07;3.07;;;19.50;1.00;;;;;;5119306;27;20181;-51
2023/07/13 02:14:52;;;;;;;2.93;2.20;;;19.50;1.00;;;;;;5136770;27;20203;-53
2023/07/13 02:17:17;;;;;;;1.93;1.37;;;19.50;1.00;;;;;;5135345;27;20514;-50
2023/07/13 02:19:43;;;;;;;2.67;1.50;;;19.50;1.00;;;;;;5135584;27;20197;-50
2023/07/13 02:22:08;;;;;;;3.40;1.93;;;19.40;1.00;;;;;;5135542;27;20274;-53
2023/07/13 02:24:34;;;;;;;8.97;2.43;;;19.50;1.00;;;;;;5136158;27;20242;-52
2023/07/13 02:26:59;;;;;;;2.00;1.77;;;19.50;1.00;;;;;;5136928;27;20178;-49
2023/07/13 02:29:25;;;;;;;3.57;1.90;;;19.50;1.00;;;;;;5136987;27;20479;-52
2023/07/13 02:31:51;;;;;;;1.93;1.50;;;19.50;1.00;;;;;;5136739;27;20179;-50
2023/07/13 02:34:16;;;;;;;2.40;1.57;;;19.50;1.00;;;;;;5118132;27;20210;-51
2023/07/13 02:36:42;;;;;;;2.70;1.47;;;19.40;1.00;;;;;;5136273;27;20448;-54
2023/07/13 02:39:08;;;;;;;3.53;1.70;;;19.40;1.00;;;;;;5117482;27;20186;-51
2023/07/13 02:41:34;;;;;;;2.77;1.80;;;19.40;1.00;;;;;;5135578;27;20444;-53
2023/07/13 02:44:04;;;;;;;3.63;2.00;;;19.30;1.00;;;;;;5136261;27;20460;-50
2023/07/13 02:46:31;;;;;;;3.20;1.70;;;19.30;1.00;;;;;;5135502;27;20495;-51
2023/07/13 02:48:56;;;;;;;4.07;1.70;;;19.20;1.00;;;;;;5136632;27;20413;-49
2023/07/13 02:51:22;;;;;;;2.60;1.70;;;19.10;1.00;;;;;;5137010;27;20434;-49
2023/07/13 02:53:47;;;;;;;2.23;1.50;;;19.10;1.00;;;;;;5136848;27;20287;-53
2023/07/13 02:56:13;;;;;;;3.43;2.00;;;19.00;1.00;;;;;;5136736;27;20163;-50
2023/07/13 02:58:39;;;;;;;4.93;3.70;;;19.00;1.00;;;;;;5136547;27;20206;-54
2023/07/13 03:01:09;;;;;;;10.30;1.93;;;19.00;1.00;;;;;;5134771;27;20260;-52
2023/07/13 03:03:35;;;;;;;5.23;1.90;;;19.00;1.00;;;;;;5134126;27;20167;-51
2023/07/13 03:06:03;;;;;;;3.90;1.87;;;19.00;1.00;;;;;;5133354;27;20423;-54
2023/07/13 03:08:29;;;;;;;2.37;1.67;;;19.10;1.00;;;;;;5133142;27;20289;-50
2023/07/13 03:11:01;;;;;;;2.37;1.67;;;19.10;1.00;;;;;;5133868;27;20454;-51
2023/07/13 03:13:27;;;;;;;3.43;2.10;;;19.10;1.00;;;;;;5133192;27;20206;-50
2023/07/13 03:15:53;;;;;;;2.20;1.43;;;19.10;1.00;;;;;;5133649;28;20455;-54
2023/07/13 03:18:18;;;;;;;2.50;1.80;;;19.00;1.00;;;;;;5133157;28;20288;-51
2023/07/13 03:20:44;;;;;;;2.23;1.43;;;19.00;1.00;;;;;;5130415;28;20182;-51
2023/07/13 03:23:10;;;;;;;4.23;1.83;;;19.10;1.00;;;;;;5115642;28;20387;-53
2023/07/13 03:25:36;;;;;;;2.93;1.77;;;19.10;1.00;;;;;;5119977;28;20164;-51
2023/07/13 03:28:02;;;;;;;3.03;1.80;;;19.20;1.00;;;;;;5135511;28;20523;-52
2023/07/13 03:30:27;;;;;;;5.27;1.87;;;19.30;1.00;;;;;;5134667;28;20171;-50
2023/07/13 03:32:53;;;;;;;2.57;2.07;;;19.30;1.00;;;;;;5136391;28;20263;-50
2023/07/13 03:35:18;;;;;;;4.43;1.93;;;19.30;1.00;;;;;;5135504;28;20202;-51
2023/07/13 03:37:44;;;;;;;2.67;2.10;;;19.40;1.00;;;;;;5129380;28;20434;-53
2023/07/13 03:40:12;;;;;;;2.17;1.70;;;19.30;1.00;;;;;;5112979;28;20196;-54
2023/07/13 03:42:38;;;;;;;2.77;1.67;;;19.40;1.00;;;;;;5094769;28;20432;-52
2023/07/13 03:45:04;;;;;;;2.50;1.83;;;19.40;1.00;;;;;;5110201;28;20418;-52
2023/07/13 03:47:29;;;;;;;2.83;1.83;;;19.40;1.00;;;;;;5110030;28;20199;-49
2023/07/13 03:49:55;;;;;;;2.27;1.83;;;19.40;1.00;;;;;;5111139;28;20473;-51
2023/07/13 03:52:21;;;;;;;2.97;2.10;;;19.40;1.00;;;;;;5114773;28;20192;-50
2023/07/13 03:54:46;;;;;;;2.43;1.70;;;19.40;1.00;;;;;;5115968;28;20528;-49
2023/07/13 03:57:12;;;;;;;3.07;1.83;;;19.40;1.00;;;;;;5118925;28;20172;-48
2023/07/13 03:59:38;;;;;;;2.67;1.77;;;19.50;1.00;;;;;;5119025;28;20171;-50
2023/07/13 04:02:04;;;;;;;2.40;1.63;;;19.50;1.00;;;;;;5117208;28;20485;-57
2023/07/13 04:04:30;;;;;;;3.27;1.80;;;19.50;1.00;;;;;;5116123;28;20198;-56
2023/07/13 04:06:58;;;;;;;2.80;1.80;;;19.60;1.00;;;;;;5116574;28;20496;-56
2023/07/13 04:09:24;;;;;;;2.93;1.70;;;19.70;1.00;;;;;;5115474;28;20417;-58
2023/07/13 04:11:50;;;;;;;3.90;2.17;;;19.70;1.00;;;;;;5116594;28;20464;-57
2023/07/13 04:14:15;;;;;;;2.50;1.90;;;19.60;1.00;;;;;;5114142;28;21067;-57
2023/07/13 04:16:41;;;;;;;3.20;1.93;;;19.70;1.00;;;;;;5115143;28;20515;-56
2023/07/13 04:19:09;;;;;;;2.67;1.70;;;19.70;1.00;;;;;;5115282;28;20503;-57
2023/07/13 04:21:36;;;;;;;3.33;1.87;;;19.60;1.00;;;;;;5115989;28;20667;-58
2023/07/13 04:24:02;;;;;;;4.70;1.47;;;19.60;1.00;;;;;;5080727;28;20437;-58
2023/07/13 04:26:29;;;;;;;4.40;2.83;;;19.60;1.00;;;;;;5115593;28;20787;-58
2023/07/13 04:28:55;;;;;;;4.80;1.87;;;19.60;1.00;;;;;;5098504;28;20428;-58
2023/07/13 04:31:21;;;;;;;3.90;2.67;;;19.60;1.00;;;;;;5099231;28;20866;-57
2023/07/13 04:33:46;;;;;;;4.00;2.37;;;19.70;1.00;;;;;;5116034;28;20583;-56
2023/07/13 04:36:12;;;;;;;2.37;2.10;;;19.70;1.00;;;;;;5097615;28;20517;-58
2023/07/13 04:38:38;;;;;;;4.80;2.07;;;19.70;1.00;;;;;;5115774;27;20179;-57
2023/07/13 04:41:06;;;;;;;4.43;1.90;;;19.80;1.00;;;;;;5116680;28;20198;-57
2023/07/13 04:43:32;;;;;;;3.07;2.00;;;19.80;1.00;;;;;;5117993;28;20190;-57
2023/07/13 04:46:06;;;;;;;11.63;7.90;;;19.90;1.00;;;;;;5099540;28;20456;-56
2023/07/13 04:48:32;;;;;;;11.97;9.17;;;19.90;1.00;;;;;;5117188;28;20499;-57
2023/07/13 04:50:58;;;;;;;7.60;5.90;;;19.90;1.00;;;;;;5116660;28;20554;-56
2023/07/13 04:53:24;;;;;;;5.87;3.70;;;19.90;1.00;;;;;;5116407;28;20425;-56
2023/07/13 04:55:50;;;;;;;5.83;4.33;;;19.80;1.00;;;;;;5116213;28;20191;-55
2023/07/13 04:58:16;;;;;;;5.37;3.93;;;19.70;1.00;;;;;;5115908;28;20823;-56
2023/07/13 05:00:42;;;;;;;5.53;4.87;;;19.70;1.00;;;;;;5126226;27;20179;-55
2023/07/13 05:03:07;;;;;;;7.90;5.83;;;19.70;1.00;;;;;;5137259;27;20909;-57
2023/07/13 05:05:33;;;;;;;13.83;10.03;;;19.70;1.00;;;;;;5132762;27;20168;-57
2023/07/13 05:07:59;;;;;;;17.80;13.80;;;19.90;1.00;;;;;;5117451;27;20459;-58
2023/07/13 05:10:25;;;;;;;13.40;11.20;;;20.00;1.00;;;;;;5117404;27;20440;-58
2023/07/13 05:12:51;;;;;;;11.20;9.53;;;20.10;1.00;;;;;;5116717;28;20437;-56
2023/07/13 05:15:20;;;;;;;8.93;7.70;;;20.20;1.00;;;;;;5117350;27;20306;-57
2023/07/13 05:17:49;;;;;;;5.60;4.70;;;20.40;1.00;;;;;;5136103;27;20175;-58
2023/07/13 05:20:16;;;;;;;4.50;4.00;;;20.50;1.00;;;;;;5117749;27;20424;-56
2023/07/13 05:22:42;;;;;;;3.60;3.03;;;20.60;1.00;;;;;;5135666;27;20425;-57
2023/07/13 05:25:08;;;;;;;4.50;2.93;;;20.70;1.00;;;;;;5131518;27;20436;-57
2023/07/13 05:27:34;;;;;;;5.30;3.43;;;20.70;1.00;;;;;;5137569;27;20675;-58
2023/07/13 05:30:01;;;;;;;10.87;6.63;;;20.80;1.00;;;;;;5135829;27;20463;-57
2023/07/13 05:32:26;;;;;;;9.00;4.97;;;20.90;1.00;;;;;;5122711;27;20676;-59
2023/07/13 05:34:52;;;;;;;8.80;4.97;;;20.90;1.00;;;;;;5117571;28;20469;-56
2023/07/13 05:37:18;;;;;;;5.50;4.30;;;20.90;1.00;;;;;;5116615;28;20412;-57
2023/07/13 05:39:43;;;;;;;5.43;3.37;;;20.90;1.00;;;;;;5096334;28;20178;-58
2023/07/13 05:42:09;;;;;;;4.13;3.07;;;20.90;1.00;;;;;;5093504;28;20180;-58
2023/07/13 05:44:35;;;;;;;6.27;2.97;;;21.00;1.00;;;;;;5109395;28;20285;-57
2023/07/13 05:47:00;;;;;;;3.90;1.90;;;21.00;1.00;;;;;;5109546;28;20538;-57
2023/07/13 05:49:26;;;;;;;6.80;2.10;;;21.00;1.00;;;;;;5109526;28;20563;-59
2023/07/13 05:51:52;;;;;;;5.10;2.73;;;21.10;1.00;;;;;;5107476;28;20261;-56
2023/07/13 05:54:17;;;;;;;3.10;2.80;;;21.00;1.00;;;;;;5109214;28;20469;-57
2023/07/13 05:56:43;;;;;;;4.00;3.20;;;21.00;1.00;;;;;;5112549;28;20168;-57
2023/07/13 05:59:08;;;;;;;68.87;48.20;;;21.00;1.00;;;;;;5112798;28;20572;-57
2023/07/13 06:01:34;;;;;;;13.80;9.97;;;21.00;1.00;;;;;;5109559;28;20254;-57
2023/07/13 06:04:00;;;;;;;11.10;6.67;;;21.00;1.00;;;;;;5108870;28;20184;-57
2023/07/13 06:06:27;;;;;;;8.13;5.90;;;21.00;1.00;;;;;;5109189;28;20186;-57
2023/07/13 06:08:52;;;;;;;7.90;6.20;;;21.20;1.00;;;;;;5109281;28;20219;-57
2023/07/13 06:11:21;;;;;;;4.80;4.13;;;21.30;1.00;;;;;;5110962;28;20437;-58
2023/07/13 06:13:46;;;;;;;7.47;4.47;;;21.40;1.00;;;;;;5090445;28;20219;-58
2023/07/13 06:16:13;;;;;;;9.40;5.70;;;21.50;1.00;;;;;;5112208;28;20466;-57
2023/07/13 06:18:40;;;;;;;5.83;4.23;;;21.70;1.00;;;;;;5113050;28;20178;-54
2023/07/13 06:21:25;;;;;;;7.80;4.90;;;21.60;1.00;;;;;;5076639;28;20423;-54
2023/07/13 06:23:52;;;;;;;7.77;3.97;;;21.60;1.00;;;;;;5114216;28;20436;-57
2023/07/13 06:26:19;;;;;;;7.37;6.33;;;21.50;1.00;;;;;;5113299;28;20425;-57
2023/07/13 06:28:44;;;;;;;6.10;4.30;;;21.50;1.00;;;;;;5114063;28;20417;-58
2023/07/13 06:31:12;;;;;;;35.53;21.17;;;21.50;1.00;;;;;;5113004;28;20433;-58
2023/07/13 06:33:37;;;;;;;7.10;4.77;;;21.50;1.00;;;;;;5112434;28;20297;-57
2023/07/13 06:36:04;;;;;;;21.53;12.77;;;21.50;1.00;;;;;;5114074;28;20583;-56
2023/07/13 06:38:30;;;;;;;9.30;5.73;;;21.50;1.00;;;;;;5112408;28;20176;-57
2023/07/13 06:40:56;;;;;;;4.17;2.83;;;21.60;1.00;;;;;;5113034;28;20716;-58
2023/07/13 06:43:21;;;;;;;6.60;4.50;;;21.60;1.00;;;;;;5114055;28;20204;-58
2023/07/13 06:45:49;;;;;;;9.83;6.53;;;21.70;1.00;;;;;;5112954;28;20195;-57
2023/07/13 06:48:15;;;;;;;6.30;4.20;;;21.70;1.00;;;;;;5113623;27;20172;-56
2023/07/13 06:50:44;;;;;;;5.40;4.00;;;21.90;1.00;;;;;;5110978;28;20440;-56
2023/07/13 06:53:11;;;;;;;4.33;3.50;;;22.20;1.00;;;;;;5090619;28;20422;-57
2023/07/13 06:55:37;;;;;;;3.50;2.80;;;22.50;1.00;;;;;;5109830;28;20521;-58
2023/07/13 06:58:03;;;;;;;6.07;3.63;;;22.60;1.00;;;;;;5112957;28;20410;-55
2023/07/13 07:00:28;;;;;;;9.57;5.60;;;22.50;1.00;;;;;;5112372;28;20233;-56
2023/07/13 07:02:54;;;;;;;9.93;7.20;;;22.60;1.00;;;;;;5111044;28;20416;-54
2023/07/13 07:05:21;;;;;;;10.53;7.90;;;22.60;1.00;;;;;;5110438;28;20190;-56
2023/07/13 07:07:50;;;;;;;7.90;5.40;;;22.70;1.00;;;;;;5112157;28;20289;-58
2023/07/13 07:10:16;;;;;;;5.30;3.50;;;22.70;1.00;;;;;;5109726;28;20445;-58
2023/07/13 07:12:42;;;;;;;25.17;17.10;;;23.00;1.00;;;;;;5111557;28;20490;-57
2023/07/13 07:15:08;;;;;;;5.83;3.67;;;23.20;1.00;;;;;;5112732;28;20505;-56
2023/07/13 07:17:34;;;;;;;4.40;3.10;;;23.20;1.00;;;;;;5113409;28;20414;-59
2023/07/13 07:19:59;;;;;;;6.30;4.27;;;23.10;1.00;;;;;;5112094;28;20445;-56
2023/07/13 07:22:28;;;;;;;5.63;2.53;;;23.20;1.00;;;;;;5112812;28;20183;-58
2023/07/13 07:24:54;;;;;;;6.20;3.17;;;23.50;1.00;;;;;;5113837;28;20179;-58
2023/07/13 07:27:20;;;;;;;5.97;2.90;;;23.70;1.00;;;;;;5117379;28;20405;-58
2023/07/13 07:29:45;;;;;;;5.10;2.90;;;23.80;1.00;;;;;;5116347;28;20425;-58
2023/07/13 07:32:11;;;;;;;3.37;2.13;;;24.10;1.00;;;;;;5115823;28;20429;-58
2023/07/13 07:34:37;;;;;;;3.13;2.07;;;24.10;1.00;;;;;;5135131;27;20465;-59
2023/07/13 07:37:04;;;;;;;3.20;2.07;;;24.10;1.00;;;;;;5129760;27;20185;-59
2023/07/13 07:39:30;;;;;;;5.33;2.63;;;23.90;1.00;;;;;;5136190;27;20419;-57
2023/07/13 07:41:56;;;;;;;2.83;1.90;;;23.70;1.00;;;;;;5134329;27;20413;-56
2023/07/13 07:44:22;;;;;;;3.47;2.13;;;23.90;1.00;;;;;;5133989;27;20163;-55
2023/07/13 07:46:48;;;;;;;3.83;1.80;;;23.90;1.00;;;;;;5134028;27;20565;-57
2023/07/13 07:49:14;;;;;;;4.20;2.20;;;23.90;1.00;;;;;;5112523;28;20560;-56
2023/07/13 07:51:39;;;;;;;2.30;1.80;;;24.10;1.00;;;;;;5131158;27;20417;-58
2023/07/13 07:54:05;;;;;;;4.40;1.70;;;24.40;1.00;;;;;;5134777;27;20682;-56
2023/07/13 07:56:31;;;;;;;3.27;1.60;;;24.30;1.00;;;;;;5135060;27;20244;-54
2023/07/13 07:58:57;;;;;;;3.37;2.20;;;24.50;1.00;;;;;;5134391;27;20383;-58
2023/07/13 08:01:23;;;;;;;2.70;1.40;;;24.70;1.00;;;;;;5134680;27;20416;-56
2023/07/13 08:03:48;;;;;;;2.47;2.27;;;24.90;1.00;;;;;;5133551;27;20997;-56
2023/07/13 08:06:14;;;;;;;4.10;1.83;;;25.00;1.00;;;;;;5135608;27;20427;-58
2023/07/13 08:08:40;;;;;;;3.90;1.53;;;25.10;1.00;;;;;;5136742;27;20222;-57
2023/07/13 08:11:08;;;;;;;3.20;1.53;;;25.10;1.00;;;;;;5134872;27;20191;-54
2023/07/13 08:13:33;;;;;;;1.97;1.43;;;25.20;1.00;;;;;;5135252;27;20545;-57
2023/07/13 08:16:00;;;;;;;3.90;2.00;;;25.10;1.00;;;;;;5124449;27;20425;-58
2023/07/13 08:18:27;;;;;;;3.93;1.90;;;24.70;1.00;;;;;;5138750;27;20724;-58
2023/07/13 08:20:56;;;;;;;3.77;2.00;;;24.70;1.00;;;;;;5133237;27;20773;-56
2023/07/13 08:23:21;;;;;;;6.17;2.00;;;24.80;1.00;;;;;;5136060;27;20420;-55
2023/07/13 08:25:54;;;;;;;3.30;1.90;;;25.20;1.00;;;;;;5134527;27;20512;-57
2023/07/13 08:28:20;;;;;;;5.10;2.50;;;25.70;1.00;;;;;;5135658;27;20578;-56
2023/07/13 08:30:49;;;;;;;3.13;2.20;;;25.80;1.00;;;;;;5134896;27;20469;-54
2023/07/13 08:33:19;;;;;;;2.10;1.37;;;25.90;1.00;;;;;;5124750;27;20457;-57
2023/07/13 08:35:47;;;;;;;5.40;1.70;;;26.20;1.00;;;;;;5115054;28;20429;-55
2023/07/13 08:38:13;;;;;;;3.40;1.73;;;26.50;1.00;;;;;;5117470;27;20809;-56
2023/07/13 08:40:39;;;;;;;5.10;1.77;;;26.60;1.00;;;;;;5131642;27;20437;-56
2023/07/13 08:43:06;;;;;;;1.90;1.50;;;26.90;1.00;;;;;;5135428;27;20750;-57
2023/07/13 08:45:55;;;;;;;4.20;1.97;;;27.00;1.00;;;;;;5112495;27;20661;-52
2023/07/13 08:48:26;;;;;;;2.90;1.53;;;27.00;1.00;;;;;;5111537;28;20421;-56
2023/07/13 08:50:56;;;;;;;3.13;1.90;;;27.10;1.00;;;;;;5134216;27;20497;-56
2023/07/13 08:53:23;;;;;;;4.53;2.00;;;26.60;1.00;;;;;;5134577;27;20563;-47
2023/07/13 08:55:52;;;;;;;2.70;1.80;;;26.70;1.00;;;;;;5133864;27;20533;-49
2023/07/13 08:58:18;;;;;;;2.60;1.87;;;26.60;1.00;;;;;;5096736;28;20502;-51
2023/07/13 09:00:47;;;;;;;2.23;1.70;;;26.50;1.00;;;;;;5135582;27;20408;-51
2023/07/13 09:03:31;;;;;;;3.50;1.90;;;26.70;1.00;;;;;;5136682;27;20517;-51
2023/07/13 09:05:58;;;;;;;2.90;1.90;;;27.00;1.00;;;;;;5137470;27;20683;-48
2023/07/13 09:08:33;;;;;;;3.07;1.90;;;27.40;1.00;;;;;;5115667;28;20631;-49
2023/07/13 09:11:22;;;;;;;2.60;1.80;;;27.90;1.00;;;;;;5128319;27;20420;-49
2023/07/13 09:14:00;;;;;;;1.87;1.57;;;27.40;1.00;;;;;;5134808;27;20577;-48
2023/07/13 09:16:26;;;;;;;5.47;1.90;;;27.50;1.00;;;;;;5137838;27;20421;-49
2023/07/13 09:18:54;;;;;;;2.97;2.40;;;27.90;1.00;;;;;;5135973;27;20423;-50
2023/07/13 09:21:33;;;;;;;2.37;1.80;;;27.70;1.00;;;;;;5112857;28;20152;-49
2023/07/13 09:24:33;;;;;;;5.20;1.83;;;27.30;1.00;;;;;;5113400;28;20417;-48
2023/07/13 09:26:59;;;;;;;5.50;1.93;;;27.70;1.00;;;;;;5127906;27;20459;-49
2023/07/13 09:29:37;;;;;;;3.80;2.07;;;28.00;1.00;;;;;;5113419;28;20449;-49
2023/07/13 09:32:06;;;;;;;2.20;1.83;;;27.80;1.00;;;;;;5112602;28;20183;-47
2023/07/13 09:34:33;;;;;;;3.40;2.17;;;28.00;1.00;;;;;;5112642;28;20723;-51
2023/07/13 09:36:58;;;;;;;3.00;1.63;;;28.30;1.00;;;;;;5135301;27;20782;-48
2023/07/13 09:39:35;;;;;;;4.40;1.77;;;28.00;1.00;;;;;;5136145;27;20487;-52
2023/07/13 09:42:19;;;;;;;4.83;1.80;;;27.90;1.00;;;;;;5114372;28;20272;-50
2023/07/13 09:44:48;;;;;;;3.93;1.77;;;27.70;1.00;;;;;;5101120;27;20664;-48
2023/07/13 09:47:19;;;;;;;3.07;2.20;;;27.60;1.00;;;;;;5135317;27;20938;-52
2023/07/13 09:49:45;;;;;;;5.23;1.70;;;27.80;1.00;;;;;;5115894;27;20451;-49
2023/07/13 09:52:14;;;;;;;3.30;1.93;;;28.30;1.00;;;;;;5135842;27;20535;-49
2023/07/13 09:54:39;;;;;;;5.20;1.70;;;28.80;1.00;;;;;;5134954;27;20465;-50
2023/07/13 09:57:20;;;;;;;3.00;1.70;;;29.20;1.00;;;;;;5133275;27;20906;-57
2023/07/13 09:59:48;;;;;;;2.27;1.73;;;29.60;1.00;;;;;;5113090;27;20204;-50
2023/07/13 10:02:34;;;;;;;3.30;2.10;;;29.80;1.00;;;;;;5131465;27;20421;-49
2023/07/13 10:05:11;;;;;;;3.30;1.97;;;29.60;1.00;;;;;;5129666;27;20427;-48
2023/07/13 10:07:44;;;;;;;3.10;1.87;;;29.10;1.00;;;;;;5132692;27;20450;-51
2023/07/13 10:10:18;;;;;;;3.10;1.90;;;28.60;1.00;;;;;;5111015;28;20834;-50
2023/07/13 10:12:44;;;;;;;2.50;1.60;;;28.50;1.00;;;;;;5133173;27;20846;-50
2023/07/13 10:15:16;;;;;;;4.13;1.90;;;28.00;1.00;;;;;;5132904;27;20537;-47
2023/07/13 10:17:43;;;;;;;2.53;1.60;;;27.60;1.00;;;;;;5130834;27;20492;-48
2023/07/13 10:20:12;;;;;;;4.37;2.20;;;27.60;1.00;;;;;;5108703;28;20483;-46
2023/07/13 10:22:49;;;;;;;3.20;1.77;;;28.00;1.00;;;;;;5109626;27;20490;-50
2023/07/13 10:25:18;;;;;;;5.20;2.33;;;28.40;1.00;;;;;;5107734;28;20615;-46
2023/07/13 10:27:45;;;;;;;3.60;1.80;;;28.90;1.00;;;;;;5129172;27;20451;-50
2023/07/13 10:30:32;;;;;;;3.50;2.10;;;28.80;1.00;;;;;;5111061;28;20417;-50
2023/07/13 10:33:01;;;;;;;4.17;1.80;;;28.80;1.00;;;;;;5109510;28;20535;-47
2023/07/13 10:35:29;;;;;;;6.10;1.83;;;28.40;1.00;;;;;;5109282;28;20762;-50
2023/07/13 10:38:05;;;;;;;3.10;1.90;;;27.50;1.00;;;;;;5110487;28;20761;-51
2023/07/13 10:40:59;;;;;;;4.03;2.07;;;27.30;1.00;;;;;;5129612;27;20436;-52
2023/07/13 10:43:47;;;;;;;3.43;1.53;;;27.50;1.00;;;;;;5100405;28;20445;-48
2023/07/13 10:46:17;;;;;;;3.97;2.10;;;27.40;1.00;;;;;;5124951;27;20531;-48
2023/07/13 10:48:44;;;;;;;2.80;2.40;;;27.60;1.00;;;;;;5131023;27;20413;-50
2023/07/13 10:51:12;;;;;;;2.80;1.87;;;27.80;1.00;;;;;;5109065;28;20548;-48
2023/07/13 10:53:39;;;;;;;3.00;1.80;;;28.20;1.00;;;;;;5110505;28;20453;-49
2023/07/13 10:56:24;;;;;;;3.33;1.80;;;28.60;1.00;;;;;;5129483;27;20407;-48
2023/07/13 10:59:16;;;;;;;3.93;1.90;;;28.60;1.00;;;;;;5129820;27;20550;-48
2023/07/13 11:02:08;;;;;;;4.53;1.70;;;29.30;1.00;;;;;;5131752;27;20869;-50
2023/07/13 11:04:47;;;;;;;2.37;1.70;;;30.20;1.00;;;;;;5118558;27;20470;-48
2023/07/13 11:07:27;;;;;;;2.17;1.70;;;30.10;1.00;;;;;;5132269;27;20472;-49
2023/07/13 11:10:04;;;;;;;3.67;2.00;;;29.60;1.00;;;;;;5133787;27;20454;-49
2023/07/13 11:12:51;;;;;;;3.73;2.13;;;29.30;1.00;;;;;;5130829;27;20499;-50
2023/07/13 11:15:54;;;;;;;2.60;1.80;;;28.70;1.00;;;;;;5128502;27;20855;-49
2023/07/13 11:18:25;;;;;;;3.57;1.70;;;28.20;1.00;;;;;;5126672;27;20530;-52
2023/07/13 11:20:50;;;;;;;4.20;1.97;;;27.40;1.00;;;;;;5133242;27;20432;-49
2023/07/13 11:23:17;;;;;;;2.30;1.57;;;27.10;1.00;;;;;;5131196;28;20459;-48
2023/07/13 11:25:43;;;;;;;3.47;2.03;;;27.50;1.00;;;;;;5131538;28;20436;-48
2023/07/13 11:28:11;;;;;;;2.40;1.70;;;27.80;1.00;;;;;;5132805;28;20552;-51
2023/07/13 11:30:42;;;;;;;3.40;1.80;;;28.10;1.00;;;;;;5132519;28;20496;-49
2023/07/13 11:33:39;;;;;;;5.07;1.90;;;28.40;1.00;;;;;;5134111;28;20508;-49
2023/07/13 11:36:10;;;;;;;6.50;2.10;;;27.70;1.00;;;;;;5133755;28;20434;-50
2023/07/13 11:38:44;;;;;;;2.20;1.77;;;27.50;1.00;;;;;;5111671;28;20851;-51
2023/07/13 11:41:23;;;;;;;3.90;2.47;;;27.50;1.00;;;;;;5130263;28;20896;-50
2023/07/13 11:44:02;;;;;;;3.10;2.00;;;27.60;1.00;;;;;;5131508;28;20428;-48
2023/07/13 11:46:28;;;;;;;4.83;2.03;;;28.20;1.00;;;;;;5129862;28;20395;-51
2023/07/13 11:48:54;;;;;;;2.77;1.67;;;29.20;1.00;;;;;;5128824;28;20523;-48
2023/07/13 11:51:31;;;;;;;2.83;1.70;;;30.20;1.00;;;;;;5109119;28;20918;-49
2023/07/13 11:54:00;;;;;;;3.07;2.43;;;29.70;1.00;;;;;;5123655;28;20486;-49
2023/07/13 11:56:26;;;;;;;3.50;2.00;;;29.00;1.00;;;;;;5133519;28;20531;-49
2023/07/13 11:58:54;;;;;;;2.90;2.00;;;28.70;1.00;;;;;;5132781;28;20675;-48
2023/07/13 12:01:23;;;;;;;5.20;2.33;;;28.20;1.00;;;;;;5112598;28;20745;-48
2023/07/13 12:03:50;;;;;;;11.67;2.60;;;28.10;1.00;;;;;;5131646;28;20438;-48
2023/07/13 12:06:43;;;;;;;5.63;1.90;;;28.20;1.00;;;;;;5108629;28;20428;-47
2023/07/13 12:09:18;;;;;;;2.57;1.93;;;29.10;1.00;;;;;;5122121;28;20760;-49
2023/07/13 12:11:44;;;;;;;3.93;1.97;;;30.00;1.00;;;;;;5114177;27;20428;-49
2023/07/13 12:14:16;;;;;;;2.47;1.80;;;30.80;1.00;;;;;;5134456;27;20472;-49
2023/07/13 12:16:42;;;;;;;5.33;2.43;;;31.30;1.00;;;;;;5135617;27;20167;-51
2023/07/13 12:19:26;;;;;;;2.70;2.13;;;31.40;1.00;;;;;;5135883;27;20399;-49
2023/07/13 12:21:54;;;;;;;4.27;2.77;;;31.80;1.00;;;;;;5134838;27;20409;-50
2023/07/13 12:24:22;;;;;;;4.50;2.57;;;31.70;1.00;;;;;;5111693;28;20413;-48
2023/07/13 12:26:59;;;;;;;3.93;2.40;;;31.20;1.00;;;;;;5133268;27;20401;-50
2023/07/13 12:29:25;;;;;;;3.67;2.00;;;30.70;1.00;;;;;;5132711;27;20763;-51
2023/07/13 12:31:52;;;;;;;3.20;1.97;;;30.60;1.00;;;;;;5131720;27;20694;-51
2023/07/13 12:34:20;;;;;;;4.60;2.00;;;31.30;1.00;;;;;;5134455;27;20525;-49
2023/07/13 12:36:57;;;;;;;2.37;1.77;;;31.90;1.00;;;;;;5134760;27;20399;-49
2023/07/13 12:39:37;;;;;;;2.27;2.07;;;32.60;1.00;;;;;;5115083;28;20524;-50
2023/07/13 12:42:28;;;;;;;3.77;2.30;;;33.10;1.00;;;;;;5115299;28;20434;-51
2023/07/13 12:45:04;;;;;;;4.07;2.40;;;33.30;1.00;;;;;;5115895;28;20493;-49
2023/07/13 12:47:30;;;;;;;3.80;1.97;;;33.10;1.00;;;;;;5132073;27;20426;-48
2023/07/13 12:49:59;;;;;;;2.43;2.17;;;32.50;1.00;;;;;;5125933;27;20838;-48
2023/07/13 12:52:33;;;;;;;4.97;2.40;;;31.90;1.00;;;;;;5112139;27;20889;-50
2023/07/13 12:55:09;;;;;;;3.13;2.20;;;32.00;1.00;;;;;;5109894;27;20467;-52
2023/07/13 12:57:40;;;;;;;2.53;2.00;;;32.50;1.00;;;;;;5135138;27;20383;-49
2023/07/13 13:00:19;;;;;;;2.93;2.63;;;32.80;1.00;;;;;;5135172;27;20379;-53
2023/07/13 13:02:44;;;;;;;2.90;2.20;;;32.30;1.00;;;;;;5135817;27;20943;-51
2023/07/13 13:05:14;;;;;;;3.70;2.37;;;32.80;1.00;;;;;;5113538;28;20810;-50